AAL1768 KMSY-KDFW
Flight info
| Callsign | AAL1768 |
|---|---|
| Flight time | N/A |
| Altitude | 34000 |
| Route | AEX PNUTS WHINY4 |
| Aircraft | A320/M-SDE3FGHIRWY/LB1 |
Departure
| Time | 2026-04-29 11:52 |
|---|---|
| Airport | Louis Armstrong New Orleans International Airport (KMSY) |
Arrival
| Time | N/A |
|---|---|
| Airport | Dallas Fort Worth International Airport (KDFW) |
| Time | Latitude | Longitude | Altitude | Speed | Heading |
|---|---|---|---|---|---|
| 2026-04-29 11:27 | 29.99373 | -90.25754 | 8 ft | 0 kts | 102° |
| 2026-04-29 11:45 | 29.99377 | -90.25778 | 1 ft | 4 kts | 105° |
| 2026-04-29 11:45 | 29.99386 | -90.25807 | 6 ft | 4 kts | 118° |
| 2026-04-29 11:45 | 29.99401 | -90.25829 | 6 ft | 4 kts | 166° |
| 2026-04-29 11:45 | 29.99410 | -90.25830 | 5 ft | 0 kts | 193° |
| 2026-04-29 11:47 | 29.99409 | -90.25830 | 5 ft | 1 kts | 193° |
| 2026-04-29 11:47 | 29.99393 | -90.25835 | 7 ft | 4 kts | 193° |
| 2026-04-29 11:47 | 29.99357 | -90.25847 | 4 ft | 7 kts | 202° |
| 2026-04-29 11:48 | 29.99342 | -90.25902 | 3 ft | 9 kts | 284° |
| 2026-04-29 11:48 | 29.99362 | -90.25984 | 3 ft | 12 kts | 286° |
| 2026-04-29 11:48 | 29.99385 | -90.26079 | 5 ft | 12 kts | 285° |
| 2026-04-29 11:48 | 29.99408 | -90.26176 | 8 ft | 13 kts | 285° |
| 2026-04-29 11:49 | 29.99434 | -90.26282 | 8 ft | 15 kts | 285° |
| 2026-04-29 11:49 | 29.99463 | -90.26403 | 8 ft | 16 kts | 285° |
| 2026-04-29 11:49 | 29.99495 | -90.26534 | 10 ft | 18 kts | 285° |
| 2026-04-29 11:49 | 29.99530 | -90.26679 | 10 ft | 20 kts | 285° |
| 2026-04-29 11:50 | 29.99570 | -90.26837 | 12 ft | 20 kts | 287° |
| 2026-04-29 11:50 | 29.99607 | -90.26995 | 13 ft | 22 kts | 285° |
| 2026-04-29 11:50 | 29.99652 | -90.27184 | 8 ft | 26 kts | 285° |
| 2026-04-29 11:50 | 29.99694 | -90.27356 | 6 ft | 19 kts | 287° |
| 2026-04-29 11:51 | 29.99731 | -90.27513 | 4 ft | 22 kts | 285° |
| 2026-04-29 11:51 | 29.99723 | -90.27658 | 4 ft | 18 kts | 211° |
| 2026-04-29 11:51 | 29.99587 | -90.27705 | 0 ft | 18 kts | 193° |
| 2026-04-29 11:51 | 29.99531 | -90.27612 | 1 ft | 26 kts | 106° |
| 2026-04-29 11:52 | 29.99414 | -90.27136 | 8 ft | 94 kts | 106° |
| 2026-04-29 11:52 | 29.99187 | -90.26193 | 5 ft | 147 kts | 105° |
| 2026-04-29 11:52 | 29.98892 | -90.24942 | 266 ft | 166 kts | 104° |
| 2026-04-29 11:52 | 29.98593 | -90.23648 | 839 ft | 168 kts | 107° |
| 2026-04-29 11:53 | 29.98292 | -90.22331 | 1422 ft | 171 kts | 108° |
| 2026-04-29 11:53 | 29.98306 | -90.20971 | 1909 ft | 183 kts | 68° |
| 2026-04-29 11:53 | 29.99218 | -90.19860 | 2149 ft | 205 kts | 22° |
| 2026-04-29 11:53 | 30.00673 | -90.19729 | 2384 ft | 223 kts | 338° |
| 2026-04-29 11:54 | 30.01940 | -90.20800 | 2717 ft | 238 kts | 306° |
| 2026-04-29 11:54 | 30.02952 | -90.22409 | 3181 ft | 257 kts | 299° |
| 2026-04-29 11:54 | 30.03900 | -90.24193 | 3962 ft | 262 kts | 297° |
| 2026-04-29 11:54 | 30.04832 | -90.26014 | 4854 ft | 264 kts | 298° |
| 2026-04-29 11:55 | 30.05777 | -90.27839 | 5725 ft | 266 kts | 298° |
| 2026-04-29 11:55 | 30.06745 | -90.29667 | 6568 ft | 268 kts | 299° |
| 2026-04-29 11:55 | 30.07736 | -90.31500 | 7377 ft | 269 kts | 300° |
| 2026-04-29 11:55 | 30.08740 | -90.33333 | 8189 ft | 271 kts | 300° |
| 2026-04-29 11:56 | 30.09742 | -90.35151 | 8993 ft | 273 kts | 301° |
| 2026-04-29 11:56 | 30.10765 | -90.37001 | 9801 ft | 274 kts | 301° |
| 2026-04-29 11:56 | 30.11825 | -90.38914 | 10308 ft | 288 kts | 301° |
| 2026-04-29 11:56 | 30.12945 | -90.40943 | 10481 ft | 311 kts | 301° |
| 2026-04-29 11:57 | 30.14150 | -90.43128 | 10619 ft | 333 kts | 301° |
| 2026-04-29 11:57 | 30.15419 | -90.45418 | 11054 ft | 342 kts | 301° |
| 2026-04-29 11:57 | 30.16711 | -90.47747 | 11650 ft | 346 kts | 301° |
| 2026-04-29 11:57 | 30.17997 | -90.50073 | 12262 ft | 349 kts | 301° |
| 2026-04-29 11:58 | 30.19311 | -90.52447 | 12892 ft | 352 kts | 300° |
| 2026-04-29 11:58 | 30.20637 | -90.54846 | 13519 ft | 356 kts | 300° |
| 2026-04-29 11:58 | 30.21973 | -90.57269 | 14102 ft | 359 kts | 300° |
| 2026-04-29 11:58 | 30.23317 | -90.59709 | 14661 ft | 361 kts | 300° |
| 2026-04-29 11:59 | 30.24672 | -90.62173 | 15219 ft | 363 kts | 300° |
| 2026-04-29 11:59 | 30.26032 | -90.64646 | 15798 ft | 366 kts | 300° |
| 2026-04-29 11:59 | 30.27401 | -90.67139 | 16377 ft | 368 kts | 300° |
| 2026-04-29 11:59 | 30.28776 | -90.69645 | 16981 ft | 370 kts | 300° |
| 2026-04-29 12:00 | 30.30163 | -90.72172 | 17600 ft | 373 kts | 300° |
| 2026-04-29 12:00 | 30.31559 | -90.74719 | 18224 ft | 375 kts | 300° |
| 2026-04-29 12:00 | 30.32962 | -90.77278 | 18777 ft | 378 kts | 300° |
| 2026-04-29 12:00 | 30.34374 | -90.79851 | 19330 ft | 380 kts | 300° |
| 2026-04-29 12:01 | 30.35795 | -90.82438 | 19891 ft | 382 kts | 300° |
| 2026-04-29 12:01 | 30.37227 | -90.85048 | 20411 ft | 384 kts | 300° |
| 2026-04-29 12:01 | 30.38664 | -90.87673 | 20915 ft | 387 kts | 300° |
| 2026-04-29 12:01 | 30.40108 | -90.90314 | 21420 ft | 389 kts | 300° |
| 2026-04-29 12:02 | 30.41554 | -90.92965 | 21918 ft | 390 kts | 300° |
| 2026-04-29 12:02 | 30.43009 | -90.95630 | 22405 ft | 392 kts | 300° |
| 2026-04-29 12:02 | 30.44470 | -90.98310 | 22844 ft | 394 kts | 300° |
| 2026-04-29 12:02 | 30.45936 | -91.01001 | 23283 ft | 396 kts | 300° |
| 2026-04-29 12:03 | 30.47410 | -91.03708 | 23691 ft | 398 kts | 301° |
| 2026-04-29 12:03 | 30.48894 | -91.06432 | 24044 ft | 400 kts | 301° |
| 2026-04-29 12:03 | 30.50382 | -91.09165 | 24412 ft | 401 kts | 301° |
| 2026-04-29 12:03 | 30.51872 | -91.11905 | 24764 ft | 402 kts | 301° |
| 2026-04-29 12:04 | 30.53346 | -91.14618 | 25118 ft | 403 kts | 301° |
| 2026-04-29 12:04 | 30.54841 | -91.17371 | 25514 ft | 403 kts | 301° |
| 2026-04-29 12:04 | 30.56334 | -91.20119 | 25909 ft | 403 kts | 301° |
| 2026-04-29 12:04 | 30.57834 | -91.22874 | 26277 ft | 404 kts | 301° |
| 2026-04-29 12:05 | 30.59333 | -91.25638 | 26631 ft | 405 kts | 301° |
| 2026-04-29 12:05 | 30.60832 | -91.28411 | 26971 ft | 406 kts | 301° |
| 2026-04-29 12:05 | 30.62336 | -91.31196 | 27302 ft | 408 kts | 301° |
| 2026-04-29 12:05 | 30.63842 | -91.33987 | 27641 ft | 408 kts | 301° |
| 2026-04-29 12:06 | 30.65345 | -91.36777 | 28123 ft | 406 kts | 301° |
| 2026-04-29 12:06 | 30.66840 | -91.39547 | 28638 ft | 403 kts | 301° |
| 2026-04-29 12:06 | 30.68326 | -91.42296 | 29160 ft | 400 kts | 301° |
| 2026-04-29 12:06 | 30.69803 | -91.45029 | 29683 ft | 398 kts | 301° |
| 2026-04-29 12:07 | 30.71270 | -91.47745 | 30199 ft | 395 kts | 301° |
| 2026-04-29 12:07 | 30.72722 | -91.50444 | 30628 ft | 393 kts | 301° |
| 2026-04-29 12:07 | 30.74173 | -91.53147 | 31023 ft | 392 kts | 301° |
| 2026-04-29 12:07 | 30.75615 | -91.55830 | 31429 ft | 391 kts | 301° |
| 2026-04-29 12:08 | 30.77055 | -91.58507 | 31831 ft | 390 kts | 301° |
| 2026-04-29 12:08 | 30.78489 | -91.61176 | 32228 ft | 389 kts | 301° |
| 2026-04-29 12:08 | 30.79918 | -91.63841 | 32620 ft | 388 kts | 301° |
| 2026-04-29 12:08 | 30.81348 | -91.66509 | 33012 ft | 388 kts | 301° |
| 2026-04-29 12:09 | 30.82774 | -91.69166 | 33409 ft | 387 kts | 301° |
| 2026-04-29 12:09 | 30.84195 | -91.71820 | 33801 ft | 386 kts | 301° |
| 2026-04-29 12:09 | 30.85618 | -91.74480 | 33980 ft | 388 kts | 301° |
| 2026-04-29 12:09 | 30.87053 | -91.77171 | 34004 ft | 394 kts | 301° |
| 2026-04-29 12:10 | 30.89958 | -91.82624 | 33998 ft | 397 kts | 301° |
| 2026-04-29 12:10 | 30.92877 | -91.88090 | 33991 ft | 398 kts | 301° |
| 2026-04-29 12:11 | 30.95800 | -91.93557 | 34022 ft | 396 kts | 301° |
| 2026-04-29 12:11 | 30.98695 | -91.99003 | 34029 ft | 395 kts | 301° |
| 2026-04-29 12:12 | 31.01585 | -92.04444 | 34038 ft | 395 kts | 301° |
| 2026-04-29 12:12 | 31.04472 | -92.09892 | 34037 ft | 395 kts | 301° |
| 2026-04-29 12:13 | 31.07344 | -92.15309 | 34039 ft | 395 kts | 301° |
| 2026-04-29 12:13 | 31.10236 | -92.20762 | 34037 ft | 395 kts | 301° |
| 2026-04-29 12:14 | 31.13126 | -92.26222 | 34031 ft | 396 kts | 301° |
| 2026-04-29 12:14 | 31.15538 | -92.30805 | 34037 ft | 396 kts | 300° |
| 2026-04-29 12:15 | 31.18416 | -92.36273 | 34025 ft | 395 kts | 300° |
| 2026-04-29 12:15 | 31.21285 | -92.41733 | 34028 ft | 394 kts | 300° |
| 2026-04-29 12:16 | 31.24127 | -92.47137 | 34029 ft | 391 kts | 300° |
| 2026-04-29 12:16 | 31.26599 | -92.52778 | 34025 ft | 390 kts | 292° |
| 2026-04-29 12:17 | 31.28605 | -92.58674 | 34022 ft | 390 kts | 292° |
| 2026-04-29 12:17 | 31.30623 | -92.64567 | 34019 ft | 390 kts | 292° |
| 2026-04-29 12:18 | 31.32636 | -92.70463 | 34017 ft | 390 kts | 292° |
| 2026-04-29 12:18 | 31.34639 | -92.76365 | 34019 ft | 390 kts | 292° |
| 2026-04-29 12:19 | 31.36633 | -92.82259 | 34012 ft | 390 kts | 292° |
| 2026-04-29 12:19 | 31.38628 | -92.88149 | 34003 ft | 389 kts | 292° |
| 2026-04-29 12:20 | 31.40625 | -92.94036 | 33997 ft | 389 kts | 292° |
| 2026-04-29 12:20 | 31.42613 | -92.99924 | 33995 ft | 389 kts | 292° |
| 2026-04-29 12:21 | 31.44595 | -93.05817 | 33979 ft | 389 kts | 292° |
| 2026-04-29 12:21 | 31.46574 | -93.11705 | 33985 ft | 388 kts | 291° |
| 2026-04-29 12:22 | 31.48539 | -93.17588 | 34019 ft | 387 kts | 291° |
| 2026-04-29 12:22 | 31.50506 | -93.23454 | 34004 ft | 386 kts | 291° |
| 2026-04-29 12:23 | 31.52472 | -93.29304 | 33994 ft | 386 kts | 291° |
| 2026-04-29 12:23 | 31.54424 | -93.35158 | 33978 ft | 385 kts | 291° |
| 2026-04-29 12:24 | 31.56372 | -93.41007 | 33977 ft | 385 kts | 291° |
| 2026-04-29 12:24 | 31.58310 | -93.46819 | 33986 ft | 385 kts | 291° |
| 2026-04-29 12:25 | 31.60251 | -93.52671 | 33976 ft | 385 kts | 291° |
| 2026-04-29 12:26 | 31.62741 | -93.61629 | 33978 ft | 385 kts | 287° |
| 2026-04-29 12:26 | 31.64177 | -93.67690 | 33973 ft | 386 kts | 287° |
| 2026-04-29 12:27 | 31.65658 | -93.73742 | 33974 ft | 386 kts | 287° |
| 2026-04-29 12:27 | 31.67172 | -93.79782 | 33977 ft | 386 kts | 287° |
| 2026-04-29 12:28 | 31.68691 | -93.85814 | 33982 ft | 385 kts | 287° |
| 2026-04-29 12:28 | 31.70204 | -93.91840 | 33982 ft | 384 kts | 287° |
| 2026-04-29 12:29 | 31.71706 | -93.97863 | 33984 ft | 384 kts | 287° |
| 2026-04-29 12:29 | 31.73203 | -94.03877 | 33983 ft | 383 kts | 287° |
| 2026-04-29 12:30 | 31.74689 | -94.09846 | 34003 ft | 383 kts | 287° |
| 2026-04-29 12:30 | 31.76179 | -94.15847 | 33996 ft | 383 kts | 287° |
| 2026-04-29 12:31 | 31.77660 | -94.21856 | 33991 ft | 382 kts | 287° |
| 2026-04-29 12:31 | 31.79141 | -94.27852 | 33988 ft | 382 kts | 287° |
| 2026-04-29 12:32 | 31.80613 | -94.33842 | 33984 ft | 381 kts | 287° |
| 2026-04-29 12:32 | 31.82077 | -94.39831 | 33990 ft | 381 kts | 287° |
| 2026-04-29 12:33 | 31.83545 | -94.45818 | 33981 ft | 381 kts | 287° |
| 2026-04-29 12:33 | 31.84997 | -94.51759 | 33984 ft | 380 kts | 287° |
| 2026-04-29 12:34 | 31.86452 | -94.57738 | 33983 ft | 380 kts | 287° |
| 2026-04-29 12:34 | 31.87910 | -94.63708 | 33979 ft | 379 kts | 287° |
| 2026-04-29 12:35 | 31.89360 | -94.69665 | 33975 ft | 378 kts | 287° |
| 2026-04-29 12:35 | 31.90806 | -94.75619 | 33965 ft | 378 kts | 287° |
| 2026-04-29 12:36 | 31.92241 | -94.81568 | 33972 ft | 378 kts | 287° |
| 2026-04-29 12:36 | 31.93679 | -94.87518 | 33971 ft | 378 kts | 287° |
| 2026-04-29 12:37 | 31.95116 | -94.93467 | 33968 ft | 378 kts | 287° |
| 2026-04-29 12:37 | 31.96544 | -94.99425 | 33970 ft | 378 kts | 287° |
| 2026-04-29 12:38 | 31.97969 | -95.05381 | 34005 ft | 377 kts | 287° |
| 2026-04-29 12:38 | 31.99386 | -95.11311 | 33991 ft | 375 kts | 286° |
| 2026-04-29 12:38 | 32.00074 | -95.14275 | 33798 ft | 375 kts | 286° |
| 2026-04-29 12:39 | 32.00749 | -95.17240 | 33528 ft | 375 kts | 286° |
| 2026-04-29 12:39 | 32.01422 | -95.20216 | 33264 ft | 375 kts | 285° |
| 2026-04-29 12:39 | 32.02097 | -95.23193 | 33008 ft | 376 kts | 285° |
| 2026-04-29 12:39 | 32.02777 | -95.26176 | 32747 ft | 377 kts | 285° |
| 2026-04-29 12:40 | 32.03456 | -95.29155 | 32068 ft | 377 kts | 285° |
| 2026-04-29 12:40 | 32.04133 | -95.32136 | 31305 ft | 377 kts | 285° |
| 2026-04-29 12:40 | 32.04811 | -95.35125 | 30522 ft | 378 kts | 284° |
| 2026-04-29 12:40 | 32.05489 | -95.38120 | 29666 ft | 380 kts | 284° |
| 2026-04-29 12:41 | 32.06170 | -95.41134 | 28780 ft | 380 kts | 284° |
| 2026-04-29 12:41 | 32.06854 | -95.44153 | 27865 ft | 382 kts | 284° |
| 2026-04-29 12:41 | 32.07540 | -95.47183 | 26958 ft | 384 kts | 283° |
| 2026-04-29 12:41 | 32.08220 | -95.50190 | 26581 ft | 374 kts | 283° |
| 2026-04-29 12:42 | 32.08884 | -95.53129 | 26340 ft | 369 kts | 283° |
| 2026-04-29 12:42 | 32.09544 | -95.56052 | 26102 ft | 368 kts | 283° |
| 2026-04-29 12:42 | 32.10238 | -95.58956 | 25861 ft | 368 kts | 284° |
| 2026-04-29 12:42 | 32.10973 | -95.61844 | 25555 ft | 367 kts | 285° |
| 2026-04-29 12:43 | 32.11724 | -95.64715 | 25046 ft | 365 kts | 285° |
| 2026-04-29 12:43 | 32.12478 | -95.67567 | 24512 ft | 364 kts | 285° |
| 2026-04-29 12:43 | 32.13225 | -95.70413 | 23982 ft | 363 kts | 285° |
| 2026-04-29 12:43 | 32.13962 | -95.73250 | 23439 ft | 361 kts | 284° |
| 2026-04-29 12:44 | 32.14691 | -95.76084 | 22852 ft | 360 kts | 284° |
| 2026-04-29 12:44 | 32.15382 | -95.78909 | 22419 ft | 358 kts | 283° |
| 2026-04-29 12:44 | 32.16035 | -95.81703 | 21982 ft | 356 kts | 283° |
| 2026-04-29 12:44 | 32.16677 | -95.84518 | 21521 ft | 355 kts | 283° |
| 2026-04-29 12:45 | 32.17314 | -95.87321 | 21085 ft | 353 kts | 283° |
| 2026-04-29 12:45 | 32.17948 | -95.90115 | 20637 ft | 351 kts | 283° |
| 2026-04-29 12:45 | 32.18586 | -95.92895 | 20195 ft | 350 kts | 283° |
| 2026-04-29 12:45 | 32.19226 | -95.95660 | 19758 ft | 349 kts | 283° |
| 2026-04-29 12:46 | 32.19863 | -95.98419 | 19314 ft | 347 kts | 283° |
| 2026-04-29 12:46 | 32.20497 | -96.01166 | 18895 ft | 346 kts | 283° |
| 2026-04-29 12:46 | 32.21129 | -96.03902 | 18443 ft | 345 kts | 283° |
| 2026-04-29 12:46 | 32.21757 | -96.06635 | 17968 ft | 344 kts | 283° |
| 2026-04-29 12:47 | 32.22383 | -96.09358 | 17525 ft | 343 kts | 283° |
| 2026-04-29 12:47 | 32.23010 | -96.12072 | 17097 ft | 342 kts | 284° |
| 2026-04-29 12:47 | 32.23636 | -96.14779 | 16668 ft | 341 kts | 284° |
| 2026-04-29 12:47 | 32.24258 | -96.17473 | 16241 ft | 339 kts | 284° |
| 2026-04-29 12:48 | 32.24875 | -96.20154 | 15816 ft | 337 kts | 284° |
| 2026-04-29 12:48 | 32.25487 | -96.22823 | 15392 ft | 336 kts | 284° |
| 2026-04-29 12:48 | 32.26095 | -96.25479 | 14974 ft | 334 kts | 283° |
| 2026-04-29 12:48 | 32.26698 | -96.28112 | 14631 ft | 328 kts | 283° |
| 2026-04-29 12:49 | 32.27298 | -96.30655 | 14484 ft | 316 kts | 287° |
| 2026-04-29 12:49 | 32.28212 | -96.32955 | 14207 ft | 312 kts | 300° |
| 2026-04-29 12:49 | 32.29558 | -96.34933 | 13984 ft | 307 kts | 309° |
| 2026-04-29 12:49 | 32.31005 | -96.36762 | 13665 ft | 303 kts | 309° |
| 2026-04-29 12:50 | 32.32503 | -96.38508 | 13306 ft | 302 kts | 316° |
| 2026-04-29 12:50 | 32.34093 | -96.40072 | 13100 ft | 294 kts | 316° |
| 2026-04-29 12:50 | 32.35659 | -96.41630 | 12678 ft | 294 kts | 315° |
| 2026-04-29 12:50 | 32.37209 | -96.43185 | 12309 ft | 293 kts | 315° |
| 2026-04-29 12:51 | 32.38605 | -96.44892 | 11969 ft | 286 kts | 303° |
| 2026-04-29 12:51 | 32.39630 | -96.46896 | 11566 ft | 284 kts | 296° |
| 2026-04-29 12:51 | 32.40579 | -96.48932 | 11290 ft | 280 kts | 296° |
| 2026-04-29 12:51 | 32.41528 | -96.50952 | 10904 ft | 280 kts | 297° |
| 2026-04-29 12:52 | 32.42476 | -96.52961 | 10537 ft | 280 kts | 297° |
| 2026-04-29 12:52 | 32.43425 | -96.54977 | 10208 ft | 278 kts | 297° |
| 2026-04-29 12:52 | 32.44368 | -96.56980 | 9844 ft | 278 kts | 297° |
| 2026-04-29 12:52 | 32.45290 | -96.58939 | 9686 ft | 268 kts | 296° |
| 2026-04-29 12:53 | 32.46184 | -96.60843 | 9453 ft | 263 kts | 296° |
| 2026-04-29 12:53 | 32.47064 | -96.62720 | 9009 ft | 259 kts | 296° |
| 2026-04-29 12:53 | 32.47939 | -96.64586 | 8524 ft | 258 kts | 296° |
| 2026-04-29 12:53 | 32.48800 | -96.66454 | 8177 ft | 258 kts | 292° |
| 2026-04-29 12:54 | 32.49303 | -96.68464 | 7906 ft | 252 kts | 275° |
| 2026-04-29 12:54 | 32.49429 | -96.70515 | 7703 ft | 247 kts | 272° |
| 2026-04-29 12:54 | 32.49543 | -96.72541 | 7440 ft | 246 kts | 272° |
| 2026-04-29 12:54 | 32.49660 | -96.74592 | 6963 ft | 253 kts | 272° |
| 2026-04-29 12:55 | 32.49779 | -96.76685 | 6593 ft | 256 kts | 272° |
| 2026-04-29 12:55 | 32.49898 | -96.78790 | 6243 ft | 256 kts | 272° |
| 2026-04-29 12:55 | 32.50108 | -96.80873 | 6026 ft | 254 kts | 284° |
| 2026-04-29 12:55 | 32.50832 | -96.82748 | 6031 ft | 249 kts | 293° |
| 2026-04-29 12:56 | 32.51610 | -96.84578 | 6047 ft | 248 kts | 292° |
| 2026-04-29 12:56 | 32.52388 | -96.86402 | 6040 ft | 247 kts | 292° |
| 2026-04-29 12:56 | 32.53163 | -96.88219 | 6034 ft | 246 kts | 294° |
| 2026-04-29 12:56 | 32.53919 | -96.89996 | 6037 ft | 239 kts | 295° |
| 2026-04-29 12:57 | 32.54666 | -96.91757 | 6038 ft | 239 kts | 293° |